Time;durP1;ratioP1;P1;durP2;ratioP2;P2;SDS_P1;SDS_P2;PMS_P1;PMS_P2;Temp;Humidity;BMP_temperature;BMP_pressure;BME280_temperature;BME280_humidity;BME280_pressure;Samples;Min_cycle;Max_cycle;Signal;HPM_P1;HPM_P2
2023/06/09 00:03:59;;;;;;;14.90;12.70;;;;;;;17.18;74.53;98536.42;226170;1278;25372;-74
2023/06/09 00:09:22;;;;;;;14.70;11.90;;;;;;;17.21;74.57;98527.48;226239;1278;22544;-75
2023/06/09 00:14:24;;;;;;;14.30;11.90;;;;;;;17.24;74.81;98525.40;225969;1278;22544;-75
2023/06/09 00:19:27;;;;;;;13.40;11.80;;;;;;;17.26;75.11;98528.41;225910;1278;22544;-75
2023/06/09 00:24:29;;;;;;;12.80;11.50;;;;;;;17.26;74.96;98525.15;226148;1278;22545;-75
2023/06/09 00:29:31;;;;;;;12.40;11.10;;;;;;;17.25;75.17;98522.34;226160;1277;22531;-74
2023/06/09 00:34:34;;;;;;;12.80;11.50;;;;;;;17.23;75.12;98524.23;226145;1277;22532;-75
2023/06/09 00:39:36;;;;;;;13.00;11.30;;;;;;;17.22;75.26;98529.59;226163;1277;22588;-74
2023/06/09 00:44:38;;;;;;;14.30;12.70;;;;;;;17.21;75.79;98525.04;226180;1278;22689;-75
2023/06/09 00:49:43;;;;;;;13.80;12.40;;;;;;;17.21;76.39;98526.96;226232;1275;22541;-75
2023/06/09 00:54:54;;;;;;;13.80;12.40;;;;;;;17.17;76.61;98519.15;226239;1274;22543;-75
2023/06/09 01:00:07;;;;;;;16.00;13.20;;;;;;;17.15;76.73;98511.74;226151;1278;22641;-74
2023/06/09 01:05:12;;;;;;;15.20;13.20;;;;;;;17.14;76.94;98513.04;226139;1276;22562;-75
2023/06/09 01:10:26;;;;;;;14.40;12.90;;;;;;;17.11;76.99;98509.23;226172;1271;22542;-75
2023/06/09 01:15:31;;;;;;;16.10;13.00;;;;;;;17.09;77.35;98509.40;226139;1276;22579;-75
2023/06/09 01:20:46;;;;;;;14.70;13.20;;;;;;;17.08;77.56;98502.81;226129;1277;22530;-75
2023/06/09 01:25:52;;;;;;;17.90;13.80;;;;;;;17.08;77.82;98501.16;226137;1276;22536;-75
2023/06/09 01:30:56;;;;;;;15.20;13.60;;;;;;;17.07;78.02;98498.42;226169;1277;22553;-75
2023/06/09 01:36:00;;;;;;;15.50;13.90;;;;;;;17.09;78.30;98495.36;226256;1275;22549;-74
2023/06/09 01:41:11;;;;;;;15.30;13.70;;;;;;;17.11;78.57;98491.88;225888;1277;22594;-74
2023/06/09 01:46:14;;;;;;;15.90;14.20;;;;;;;17.13;78.89;98491.34;226119;1277;22545;-75
2023/06/09 01:51:28;;;;;;;16.70;14.60;;;;;;;17.14;79.02;98490.63;226090;1276;22539;-76
2023/06/09 01:56:40;;;;;;;15.00;13.30;;;;;;;17.14;79.51;98485.86;226165;1277;22557;-76
2023/06/09 02:01:44;;;;;;;19.00;15.90;;;;;;;17.13;79.74;98484.44;226201;1278;22536;-74
2023/06/09 02:06:48;;;;;;;21.50;17.90;;;;;;;17.13;79.86;98483.91;226173;1269;22546;-75
2023/06/09 02:11:51;;;;;;;20.60;18.20;;;;;;;17.10;79.97;98478.53;226113;1277;22563;-76
2023/06/09 02:16:54;;;;;;;20.80;18.00;;;;;;;17.10;79.93;98476.11;226157;1261;22538;-75
2023/06/09 02:21:57;;;;;;;20.90;18.40;;;;;;;17.10;80.09;98471.89;226151;1276;23669;-75
2023/06/09 02:27:00;;;;;;;21.30;18.30;;;;;;;17.10;80.10;98467.98;226132;1278;22698;-76
2023/06/09 02:32:02;;;;;;;18.80;17.00;;;;;;;17.10;80.27;98467.95;226189;1278;23031;-75
2023/06/09 02:37:07;;;;;;;20.10;18.00;;;;;;;17.07;80.24;98469.64;226136;1276;24712;-75
2023/06/09 02:42:26;;;;;;;18.70;16.80;;;;;;;17.06;80.48;98467.17;226126;1276;23767;-76
2023/06/09 02:47:39;;;;;;;19.00;17.00;;;;;;;17.10;80.60;98472.70;226241;1278;22535;-75
2023/06/09 02:52:42;;;;;;;18.30;16.30;;;;;;;17.12;80.64;98467.89;225935;1278;25397;-75
2023/06/09 02:57:45;;;;;;;20.20;17.90;;;;;;;17.14;80.64;98469.00;226138;1276;22560;-75
2023/06/09 03:02:51;;;;;;;18.80;16.40;;;;;;;17.15;80.73;98475.81;226166;1278;22538;-75
2023/06/09 03:07:55;;;;;;;18.00;16.10;;;;;;;17.14;80.73;98473.32;226279;1278;22547;-75
2023/06/09 03:12:58;;;;;;;18.50;16.40;;;;;;;17.15;80.78;98473.71;226165;1278;22544;-75
2023/06/09 03:18:00;;;;;;;19.70;17.70;;;;;;;17.17;80.75;98473.11;225998;1278;22527;-75
2023/06/09 03:23:04;;;;;;;20.00;17.90;;;;;;;17.17;81.08;98479.63;226270;1276;22537;-76
2023/06/09 03:28:09;;;;;;;20.70;18.60;;;;;;;17.22;80.87;98486.77;225965;1278;22576;-75
2023/06/09 03:33:12;;;;;;;21.60;19.30;;;;;;;17.26;80.86;98489.50;226156;1278;22538;-76
2023/06/09 03:38:15;;;;;;;21.90;19.60;;;;;;;17.28;80.81;98494.31;226010;1277;22544;-75
2023/06/09 03:43:17;;;;;;;22.10;19.80;;;;;;;17.31;80.81;98500.99;226193;1278;22647;-76
2023/06/09 03:48:19;;;;;;;21.10;18.90;;;;;;;17.33;81.01;98502.52;226142;1278;22671;-76
2023/06/09 03:53:22;;;;;;;21.50;19.00;;;;;;;17.34;80.99;98505.27;225946;1277;22520;-75
2023/06/09 03:58:29;;;;;;;22.50;20.20;;;;;;;17.39;81.02;98507.79;226158;1278;22606;-76
2023/06/09 04:03:31;;;;;;;20.40;18.30;;;;;;;17.43;80.96;98509.27;226241;1277;22564;-76
2023/06/09 04:08:34;;;;;;;20.50;18.30;;;;;;;17.46;81.15;98515.83;225933;1278;22648;-76
2023/06/09 04:13:37;;;;;;;21.50;19.20;;;;;;;17.50;81.12;98515.99;226249;1276;23307;-76
2023/06/09 04:18:40;;;;;;;21.30;19.20;;;;;;;17.52;81.09;98513.17;226253;1275;22558;-76
2023/06/09 04:24:11;;;;;;;20.30;17.60;;;;;;;17.57;81.24;98518.58;226139;1278;22589;-76
2023/06/09 04:29:25;;;;;;;21.70;18.10;;;;;;;17.63;81.28;98519.24;226248;1274;22588;-76
2023/06/09 04:34:28;;;;;;;18.20;16.40;;;;;;;17.69;81.16;98514.68;226241;1275;22558;-75
2023/06/09 04:39:31;;;;;;;18.10;16.30;;;;;;;17.76;81.28;98513.66;226126;1278;22537;-75
2023/06/09 04:44:34;;;;;;;17.60;15.00;;;;;;;17.88;81.33;98513.42;226209;1278;23086;-75
2023/06/09 04:49:41;;;;;;;16.50;14.80;;;;;;;17.99;81.08;98517.69;226183;1278;22786;-76
2023/06/09 04:54:52;;;;;;;16.70;14.30;;;;;;;18.10;80.78;98521.98;226248;1278;24298;-76
2023/06/09 05:00:13;;;;;;;16.10;14.10;;;;;;;18.24;80.86;98526.48;226250;1273;22540;-76
2023/06/09 05:05:15;;;;;;;17.70;14.40;;;;;;;18.39;80.64;98524.05;226213;1275;22530;-75
2023/06/09 05:10:18;;;;;;;16.00;14.00;;;;;;;18.47;80.34;98522.08;226295;1275;22558;-75
2023/06/09 05:15:21;;;;;;;16.90;13.70;;;;;;;18.63;80.40;98520.84;225933;1278;22536;-76
2023/06/09 05:20:24;;;;;;;15.60;14.00;;;;;;;18.72;80.13;98520.70;226300;1276;22540;-75
2023/06/09 05:25:32;;;;;;;16.90;14.40;;;;;;;18.87;80.09;98520.69;226256;1278;22555;-75
2023/06/09 05:30:48;;;;;;;16.60;14.80;;;;;;;19.05;79.90;98525.09;226202;1278;22523;-76
2023/06/09 05:35:50;;;;;;;18.30;16.30;;;;;;;19.24;79.65;98520.89;226307;1278;22542;-77
2023/06/09 05:40:58;;;;;;;19.10;17.10;;;;;;;19.45;79.48;98521.83;226194;1276;22616;-75
2023/06/09 05:46:16;;;;;;;21.00;18.00;;;;;;;19.66;79.16;98527.54;226344;1278;22560;-75
2023/06/09 05:51:38;;;;;;;24.70;20.40;;;;;;;19.77;78.81;98526.73;226250;1278;22565;-75
2023/06/09 05:57:12;;;;;;;25.40;21.80;;;;;;;19.90;78.67;98525.98;226288;1260;24345;-75
2023/06/09 06:02:18;;;;;;;26.00;23.20;;;;;;;20.05;78.33;98524.58;226240;1278;22549;-74
2023/06/09 06:08:03;;;;;;;20.20;18.00;;;;;;;20.24;78.16;98525.75;226285;1278;22547;-75
2023/06/09 06:13:16;;;;;;;24.40;21.60;;;;;;;20.37;77.53;98528.55;226310;1278;22545;-75
2023/06/09 06:18:43;;;;;;;19.50;16.30;;;;;;;20.42;77.19;98536.38;222174;1276;5345219;-75
2023/06/09 06:24:14;;;;;;;20.10;18.00;;;;;;;20.41;77.01;98537.44;226231;1278;25567;-75
2023/06/09 06:29:25;;;;;;;21.90;17.80;;;;;;;20.49;77.24;98537.67;226142;1276;22562;-75
2023/06/09 06:34:27;;;;;;;19.80;17.00;;;;;;;20.67;77.35;98538.11;226254;1276;22547;-75
2023/06/09 06:40:11;;;;;;;;;;;;;;;;;;;;;
2023/06/09 06:45:30;;;;;;;24.00;18.60;;;;;;;21.03;76.53;98544.11;226307;1278;24252;-75
2023/06/09 06:50:35;;;;;;;19.40;17.40;;;;;;;21.06;76.20;98543.96;226237;1274;22544;-75
2023/06/09 07:01:25;;;;;;;21.50;19.30;;;;;;;21.46;76.21;98545.60;226259;1274;22533;-76
2023/06/09 07:06:58;;;;;;;22.50;20.10;;;;;;;21.70;75.64;98544.70;226273;1278;22530;-76
2023/06/09 07:12:48;;;;;;;22.00;18.90;;;;;;;21.89;75.25;98550.93;226227;1277;22567;-76
2023/06/09 07:18:11;;;;;;;21.50;19.40;;;;;;;22.02;74.89;98551.81;225920;1257;23711;-75
2023/06/09 07:23:19;;;;;;;20.80;18.80;;;;;;;22.18;74.34;98554.16;226164;1259;26044;-76
2023/06/09 07:28:21;;;;;;;20.20;18.30;;;;;;;22.33;73.85;98554.38;226231;1256;22540;-76
2023/06/09 07:33:47;;;;;;;19.00;17.20;;;;;;;22.49;73.66;98551.63;226150;1276;22558;-76
2023/06/09 07:38:59;;;;;;;19.20;17.30;;;;;;;22.59;73.53;98553.48;226070;1278;22651;-75
2023/06/09 07:44:01;;;;;;;18.60;16.90;;;;;;;22.68;73.26;98555.38;226008;1277;22540;-75
2023/06/09 07:49:08;;;;;;;17.80;16.10;;;;;;;22.74;72.60;98550.50;226341;1277;22555;-75
2023/06/09 07:54:13;;;;;;;17.10;15.60;;;;;;;22.89;72.69;98547.23;226170;1277;22513;-76
2023/06/09 07:59:17;;;;;;;18.70;17.10;;;;;;;23.18;72.35;98543.67;225822;1277;22600;-75
2023/06/09 08:04:38;;;;;;;;;;;;;;;;;;;;;
2023/06/09 08:10:01;;;;;;;18.30;16.60;;;;;;;23.81;71.23;98532.75;225941;1279;22552;-76
2023/06/09 08:15:03;;;;;;;19.40;17.50;;;;;;;24.04;70.08;98528.70;226034;1276;24368;-76
2023/06/09 08:20:11;;;;;;;18.00;16.30;;;;;;;24.31;69.66;98519.21;225885;1277;22551;-76
2023/06/09 08:25:28;;;;;;;17.90;16.30;;;;;;;24.55;68.93;98516.63;225736;1279;22544;-78
2023/06/09 08:30:31;;;;;;;15.70;14.30;;;;;;;24.99;69.16;98517.40;225952;1279;22550;-76
2023/06/09 08:35:33;;;;;;;16.40;15.00;;;;;;;25.47;67.82;98514.65;226002;1276;22544;-76
2023/06/09 08:40:36;;;;;;;17.00;15.50;;;;;;;25.62;66.78;98516.59;225986;1277;22538;-76
2023/06/09 08:45:44;;;;;;;16.90;15.30;;;;;;;25.57;65.98;98515.65;226098;1260;22548;-76
2023/06/09 08:50:49;;;;;;;17.70;16.00;;;;;;;25.38;65.95;98514.73;226082;1273;22602;-76
2023/06/09 08:55:55;;;;;;;24.00;21.70;;;;;;;24.98;66.35;98515.86;225910;1279;22542;-77
2023/06/09 09:01:01;;;;;;;25.30;22.70;;;;;;;24.24;68.85;98508.02;225734;1279;24233;-76
2023/06/09 09:06:05;;;;;;;25.70;23.30;;;;;;;23.53;70.55;98500.91;225913;1279;22554;-76
2023/06/09 09:11:10;;;;;;;25.20;22.90;;;;;;;23.10;71.70;98496.86;226074;1279;22595;-75
2023/06/09 09:16:16;;;;;;;24.50;22.10;;;;;;;22.86;72.59;98497.66;225930;1273;22567;-77
2023/06/09 09:21:38;;;;;;;25.60;23.20;;;;;;;22.90;73.23;98498.39;225963;1257;22539;-77
2023/06/09 09:26:55;;;;;;;19.90;18.10;;;;;;;23.28;73.05;98498.50;225997;1273;22551;-78
2023/06/09 09:32:12;;;;;;;17.20;15.80;;;;;;;23.82;72.49;98489.73;225721;1277;22544;-77
2023/06/09 09:37:17;;;;;;;15.90;14.50;;;;;;;24.50;71.60;98490.23;225900;1277;22549;-76
2023/06/09 09:42:28;;;;;;;16.60;15.10;;;;;;;24.97;69.97;98487.15;226015;1277;22605;-75
2023/06/09 09:47:49;;;;;;;17.70;16.20;;;;;;;25.17;68.69;98485.48;225880;1279;22642;-76
2023/06/09 09:52:57;;;;;;;17.40;15.90;;;;;;;25.26;68.29;98487.52;226009;1279;22586;-77
2023/06/09 09:58:13;;;;;;;17.60;16.10;;;;;;;25.11;67.58;98482.89;225935;1279;22571;-77
2023/06/09 10:03:29;;;;;;;17.10;15.60;;;;;;;25.00;67.76;98482.70;225913;1279;22555;-76
2023/06/09 10:08:57;;;;;;;19.00;17.20;;;;;;;25.20;68.15;98471.52;225889;1279;22938;-75
2023/06/09 10:14:03;;;;;;;19.40;17.60;;;;;;;25.28;67.67;98471.63;225993;1279;22534;-76
2023/06/09 10:19:09;;;;;;;21.30;19.10;;;;;;;25.20;67.82;98472.50;225845;1273;22568;-76
2023/06/09 10:24:23;;;;;;;17.90;16.50;;;;;;;25.20;67.88;98468.13;225658;1279;22551;-75
2023/06/09 10:29:27;;;;;;;18.90;17.20;;;;;;;25.15;68.08;98459.20;225948;1277;22557;-76
2023/06/09 10:34:57;;;;;;;19.10;17.30;;;;;;;25.05;67.88;98460.63;225748;1279;24268;-77
2023/06/09 10:40:26;;;;;;;19.60;18.00;;;;;;;24.92;68.01;98455.76;225971;1276;23086;-76
2023/06/09 10:46:04;;;;;;;21.80;19.90;;;;;;;24.93;67.85;98443.95;225937;1276;22573;-78
2023/06/09 10:52:01;;;;;;;21.50;19.60;;;;;;;24.92;67.30;98431.48;225974;1279;22656;-76
2023/06/09 11:03:30;;;;;;;18.90;17.40;;;;;;;24.81;66.69;98446.77;225763;1279;22715;-75
2023/06/09 11:09:14;;;;;;;19.10;17.50;;;;;;;24.81;66.56;98437.70;225917;1279;22533;-76
2023/06/09 11:14:49;;;;;;;20.20;18.10;;;;;;;24.79;66.28;98420.05;225690;1279;22565;-75
2023/06/09 11:20:09;;;;;;;20.30;18.40;;;;;;;24.74;65.66;98408.71;225905;1279;24400;-77
2023/06/09 11:25:19;;;;;;;21.70;19.70;;;;;;;24.55;65.97;98410.61;225909;1273;22573;-77
2023/06/09 11:30:23;;;;;;;;;;;;;;;24.58;66.47;98409.88;225911;1279;22615;-77
2023/06/09 11:35:44;;;;;;;22.30;20.20;;;;;;;24.67;66.64;98411.66;225850;1277;22540;-77
2023/06/09 11:40:55;;;;;;;22.60;20.50;;;;;;;24.66;66.46;98410.91;225935;1271;22570;-76
2023/06/09 11:46:06;;;;;;;21.20;19.50;;;;;;;24.73;66.79;98408.30;225865;1279;22628;-76
2023/06/09 11:51:12;;;;;;;22.30;20.30;;;;;;;24.72;66.42;98404.20;225801;1278;22734;-76
2023/06/09 11:56:15;;;;;;;15.10;13.60;;;;;;;24.56;66.63;98419.63;225941;1277;22531;-76
2023/06/09 12:01:19;;;;;;;12.20;9.10;;;;;;;24.11;65.72;98444.95;225866;1277;22559;-77
2023/06/09 12:06:36;;;;;;;11.20;6.70;;;;;;;23.16;66.91;98453.09;225790;1273;22566;-76
2023/06/09 12:11:52;;;;;;;12.40;7.20;;;;;;;22.01;68.56;98465.48;226041;1275;22618;-76
2023/06/09 12:16:57;;;;;;;10.60;6.60;;;;;;;20.99;70.35;98449.21;225898;1277;22545;-76
2023/06/09 12:21:59;;;;;;;11.40;7.70;;;;;;;20.44;71.98;98455.81;225946;1275;25479;-77
2023/06/09 12:27:11;;;;;;;11.50;9.00;;;;;;;20.07;73.74;98478.61;225892;1279;22547;-76
2023/06/09 12:32:29;;;;;;;12.10;10.60;;;;;;;19.75;74.70;98478.02;225916;1279;22725;-76
2023/06/09 12:37:42;;;;;;;14.60;10.50;;;;;;;19.33;75.43;98472.75;225763;1279;22569;-77
2023/06/09 12:42:48;;;;;;;16.80;13.50;;;;;;;18.91;76.43;98469.83;225863;1279;22541;-75
2023/06/09 12:47:53;;;;;;;15.20;13.10;;;;;;;18.64;77.39;98463.63;225844;1279;22557;-75
2023/06/09 12:52:59;;;;;;;17.70;15.30;;;;;;;18.47;78.32;98453.69;225826;1277;22564;-74
2023/06/09 12:58:06;;;;;;;15.10;13.50;;;;;;;18.34;78.93;98447.62;225778;1279;23800;-75
2023/06/09 13:03:12;;;;;;;13.10;11.90;;;;;;;18.22;79.45;98448.38;225909;1277;22571;-76
2023/06/09 13:08:36;;;;;;;15.20;13.70;;;;;;;18.15;80.05;98445.96;226070;1279;22569;-75
2023/06/09 13:13:51;;;;;;;16.80;15.30;;;;;;;18.15;80.54;98439.10;226049;1279;23049;-77
2023/06/09 13:18:58;;;;;;;18.00;14.50;;;;;;;18.14;81.09;98438.92;225829;1277;22589;-78
2023/06/09 13:24:01;;;;;;;17.70;15.90;;;;;;;18.10;81.47;98454.70;225767;1279;22536;-78
2023/06/09 13:29:36;;;;;;;16.80;15.20;;;;;;;18.03;81.86;98475.19;225847;1279;22948;-78
2023/06/09 13:35:10;;;;;;;21.30;19.00;;;;;;;17.97;82.30;98478.77;225979;1279;24257;-78
2023/06/09 13:40:32;;;;;;;19.80;17.70;;;;;;;17.94;82.50;98485.73;226091;1279;22606;-78
2023/06/09 13:45:57;;;;;;;21.80;19.50;;;;;;;17.90;82.90;98491.30;226050;1279;22587;-79
2023/06/09 13:51:21;;;;;;;20.10;18.20;;;;;;;17.85;83.15;98484.34;225949;1277;22548;-80
2023/06/09 13:56:26;;;;;;;15.60;14.00;;;;;;;17.74;83.39;98471.88;226075;1278;25436;-79
2023/06/09 14:02:15;;;;;;;13.80;12.60;;;;;;;17.53;83.12;98455.66;226072;1279;22536;-78
2023/06/09 14:07:25;;;;;;;13.60;12.10;;;;;;;17.34;83.43;98439.72;226057;1279;22548;-80
2023/06/09 14:12:47;;;;;;;13.50;12.20;;;;;;;17.20;83.69;98422.23;226156;1273;25289;-81
2023/06/09 14:17:52;;;;;;;14.60;13.10;;;;;;;17.10;84.03;98394.52;226070;1279;22530;-81
2023/06/09 14:22:58;;;;;;;15.00;13.60;;;;;;;17.04;83.98;98389.54;226185;1276;22638;-81
2023/06/09 14:28:06;;;;;;;15.30;13.70;;;;;;;17.00;84.27;98387.95;226044;1279;22591;-80
2023/06/09 14:33:56;;;;;;;16.90;15.20;;;;;;;16.98;84.49;98381.23;225905;1279;22543;-80
2023/06/09 14:38:58;;;;;;;17.70;16.00;;;;;;;16.99;84.90;98388.89;226200;1271;24270;-81
2023/06/09 14:44:00;;;;;;;18.50;16.70;;;;;;;17.03;85.05;98399.07;226143;1279;24255;-81
2023/06/09 14:49:09;;;;;;;14.70;13.30;;;;;;;17.05;85.42;98409.95;226214;1276;22552;-80
2023/06/09 14:54:12;;;;;;;15.00;13.40;;;;;;;17.04;85.61;98422.20;226066;1279;22536;-81
2023/06/09 14:59:26;;;;;;;15.70;14.20;;;;;;;17.04;85.92;98426.00;225998;1277;22737;-80
2023/06/09 15:04:28;;;;;;;16.10;14.60;;;;;;;17.05;85.97;98445.52;225993;1274;22536;-80
2023/06/09 15:09:36;;;;;;;16.00;14.40;;;;;;;17.04;86.35;98464.23;226019;1279;22541;-80
2023/06/09 15:14:38;;;;;;;13.20;11.80;;;;;;;17.02;86.68;98468.34;226037;1276;25355;-81
2023/06/09 15:19:41;;;;;;;12.10;11.00;;;;;;;17.01;86.44;98456.56;225848;1279;22650;-80
2023/06/09 15:25:32;;;;;;;14.10;12.60;;;;;;;17.00;86.71;98453.66;226050;1276;22569;-80
2023/06/09 15:30:56;;;;;;;14.00;12.70;;;;;;;17.02;86.92;98446.28;226149;1279;24220;-81
2023/06/09 15:36:16;;;;;;;14.60;13.20;;;;;;;17.07;86.88;98459.14;226058;1255;22547;-81
2023/06/09 15:41:44;;;;;;;16.70;14.80;;;;;;;17.14;86.86;98467.17;226157;1274;22554;-81
2023/06/09 15:46:46;;;;;;;14.60;13.20;;;;;;;17.22;87.06;98480.59;226023;1279;22584;-81
2023/06/09 15:51:52;;;;;;;15.50;14.10;;;;;;;17.29;87.00;98484.34;226004;1277;22608;-81
2023/06/09 15:57:13;;;;;;;13.10;11.90;;;;;;;17.35;86.98;98482.10;226090;1277;22544;-80
2023/06/09 16:02:38;;;;;;;;;;;;;;;;;;;;;
2023/06/09 16:07:50;;;;;;;13.30;12.10;;;;;;;17.41;86.83;98483.17;226035;1279;24239;-80
2023/06/09 16:13:08;;;;;;;12.60;11.50;;;;;;;17.44;86.88;98484.14;226033;1276;22544;-81
2023/06/09 16:18:13;;;;;;;13.70;12.40;;;;;;;17.44;86.69;98474.85;225943;1279;22558;-80
2023/06/09 16:23:36;;;;;;;13.30;12.10;;;;;;;17.43;86.68;98464.23;226252;1276;22674;-82
2023/06/09 16:28:40;;;;;;;13.50;11.80;;;;;;;17.41;86.76;98464.04;226277;1276;22560;-81
2023/06/09 16:33:51;;;;;;;12.40;11.20;;;;;;;17.36;86.76;98466.09;226066;1279;22527;-81
2023/06/09 16:38:57;;;;;;;13.70;12.50;;;;;;;17.31;86.92;98465.38;226086;1279;22535;-81
2023/06/09 16:44:01;;;;;;;13.70;12.40;;;;;;;17.30;87.00;98462.57;226030;1255;22570;-82
2023/06/09 16:49:05;;;;;;;14.50;12.80;;;;;;;17.29;86.87;98461.54;226017;1279;22541;-82
2023/06/09 16:54:14;;;;;;;17.20;15.50;;;;;;;17.30;87.12;98466.73;226220;1274;22534;-82
2023/06/09 16:59:44;;;;;;;16.30;14.70;;;;;;;17.31;87.25;98470.23;225989;1279;24216;-81
2023/06/09 17:05:12;;;;;;;16.50;14.80;;;;;;;17.32;87.31;98475.86;226178;1279;22563;-80
2023/06/09 17:10:35;;;;;;;20.80;18.20;;;;;;;17.33;87.01;98474.05;225853;1279;22581;-81
2023/06/09 17:16:07;;;;;;;20.70;18.60;;;;;;;17.32;87.18;98478.41;226002;1279;23286;-81
2023/06/09 17:22:14;;;;;;;23.10;20.90;;;;;;;17.31;87.04;98480.00;226194;1279;22546;-81
2023/06/09 17:27:43;;;;;;;22.40;20.40;;;;;;;17.29;87.01;98483.27;226056;1276;22595;-81
2023/06/09 17:33:13;;;;;;;17.20;15.50;;;;;;;17.28;87.27;98481.48;226082;1279;22652;-80
2023/06/09 17:38:58;;;;;;;16.20;14.80;;;;;;;17.25;87.03;98479.73;226200;1279;24213;-81
2023/06/09 17:44:16;;;;;;;18.00;16.20;;;;;;;17.22;86.61;98481.20;225695;1282;22576;-80
2023/06/09 17:49:29;;;;;;;17.90;16.30;;;;;;;17.15;86.44;98485.63;225609;1282;22552;-81
2023/06/09 17:54:35;;;;;;;17.60;16.00;;;;;;;17.11;86.59;98487.94;225515;1281;22623;-81
2023/06/09 18:00:08;;;;;;;16.40;14.90;;;;;;;17.05;86.52;98492.05;225564;1283;22646;-80
2023/06/09 18:05:42;;;;;;;12.00;10.90;;;;;;;17.00;86.41;98491.41;225451;1283;22663;-80
2023/06/09 18:10:48;;;;;;;13.40;12.10;;;;;;;16.93;86.74;98484.96;225521;1268;22552;-80
2023/06/09 18:15:59;;;;;;;14.20;12.80;;;;;;;16.91;86.62;98489.73;221798;1279;5335630;-80
2023/06/09 18:21:24;;;;;;;18.70;16.90;;;;;;;16.86;87.01;98489.91;226137;1276;22543;-80
2023/06/09 18:26:39;;;;;;;21.00;18.80;;;;;;;16.82;86.99;98483.34;225979;1277;22539;-80
2023/06/09 18:32:30;;;;;;;21.80;19.60;;;;;;;16.78;86.86;98484.37;225963;1268;22543;-80
2023/06/09 18:37:45;;;;;;;21.10;19.00;;;;;;;16.72;87.22;98486.70;226149;1279;22541;-80
2023/06/09 18:43:11;;;;;;;23.50;20.90;;;;;;;16.67;87.27;98487.25;226221;1279;25361;-80
2023/06/09 18:48:51;;;;;;;23.50;21.00;;;;;;;16.64;87.56;98496.02;226222;1279;24257;-80
2023/06/09 18:54:22;;;;;;;24.50;22.00;;;;;;;16.61;87.73;98503.27;226012;1279;22547;-80
2023/06/09 18:59:57;;;;;;;24.30;21.70;;;;;;;16.58;87.90;98508.96;225976;1279;22547;-80
2023/06/09 19:05:48;;;;;;;26.20;23.60;;;;;;;16.57;88.05;98511.17;226031;1264;22524;-80
2023/06/09 19:11:39;;;;;;;27.90;25.20;;;;;;;16.55;88.11;98519.35;226066;1279;22540;-79
2023/06/09 19:16:57;;;;;;;29.20;26.10;;;;;;;16.53;88.24;98511.14;226178;1279;22573;-80
2023/06/09 19:22:20;;;;;;;30.80;27.60;;;;;;;16.52;88.36;98508.54;226162;1279;22677;-80
2023/06/09 19:28:10;;;;;;;;;;;;;;;;;;;;;
2023/06/09 19:35:01;;;;;;;32.50;29.30;;;;;;;16.48;88.46;98517.63;225754;1261;22523;-80
2023/06/09 19:40:10;;;;;;;32.70;29.30;;;;;;;16.48;88.63;98514.10;225766;1278;24110;-79
2023/06/09 19:45:38;;;;;;;31.80;28.30;;;;;;;16.46;88.94;98507.79;225899;1281;22565;-80
2023/06/09 19:50:51;;;;;;;33.20;29.80;;;;;;;16.44;88.96;98510.14;225721;1281;22551;-80
2023/06/09 19:56:11;;;;;;;35.40;31.80;;;;;;;16.40;88.85;98521.15;225887;1281;24278;-80
2023/06/09 20:01:43;;;;;;;36.00;32.30;;;;;;;16.36;89.00;98518.38;225281;1278;26824;-81
2023/06/09 20:06:47;;;;;;;35.00;31.30;;;;;;;16.34;89.16;98519.70;225172;1284;22716;-81
2023/06/09 20:12:04;;;;;;;37.30;33.40;;;;;;;16.30;89.30;98516.95;225230;1284;22542;-80
2023/06/09 20:17:18;;;;;;;33.80;30.20;;;;;;;16.25;89.26;98512.51;225396;1282;22566;-80
2023/06/09 20:22:23;;;;;;;36.00;32.10;;;;;;;16.20;89.25;98512.50;225500;1280;22536;-80
2023/06/09 20:27:51;;;;;;;39.50;35.40;;;;;;;16.14;89.41;98514.41;226238;1279;22570;-81
2023/06/09 20:33:07;;;;;;;37.00;33.20;;;;;;;16.09;89.43;98507.80;226152;1277;22540;-81
2023/06/09 20:38:19;;;;;;;36.00;32.30;;;;;;;16.06;89.72;98506.34;226187;1278;22765;-80
2023/06/09 20:43:22;;;;;;;41.20;36.70;;;;;;;16.03;89.73;98507.93;225943;1279;22701;-80
2023/06/09 20:48:49;;;;;;;39.30;34.90;;;;;;;15.99;89.78;98505.44;225927;1277;22759;-80
2023/06/09 20:54:05;;;;;;;40.40;36.00;;;;;;;15.93;89.76;98505.39;226213;1274;24258;-80
2023/06/09 20:59:30;;;;;;;40.80;36.30;;;;;;;15.87;89.70;98515.21;225955;1256;22637;-80
2023/06/09 21:04:45;;;;;;;40.10;35.60;;;;;;;15.81;89.75;98517.80;225968;1279;22528;-80
2023/06/09 21:09:47;;;;;;;40.90;34.40;;;;;;;15.77;89.84;98521.63;226056;1279;22567;-82
2023/06/09 21:15:12;;;;;;;38.80;34.60;;;;;;;15.72;89.67;98521.83;226021;1268;25238;-80
2023/06/09 21:20:32;;;;;;;43.50;38.10;;;;;;;15.67;89.79;98526.70;225955;1280;22593;-80
2023/06/09 21:26:09;;;;;;;41.60;36.10;;;;;;;15.63;90.10;98531.09;225894;1280;22562;-80
2023/06/09 21:31:58;;;;;;;41.20;36.30;;;;;;;15.56;89.95;98536.80;226048;1279;22536;-80
2023/06/09 21:37:23;;;;;;;41.60;37.10;;;;;;;15.53;89.91;98538.74;226220;1276;22559;-80
2023/06/09 21:43:09;;;;;;;45.70;39.30;;;;;;;15.50;90.13;98535.79;226065;1280;24678;-80
2023/06/09 21:48:37;;;;;;;48.60;41.50;;;;;;;15.48;90.29;98534.78;225997;1279;22636;-80
2023/06/09 21:53:49;;;;;;;49.60;40.40;;;;;;;15.47;90.45;98532.63;226223;1280;22547;-80
2023/06/09 21:59:27;;;;;;;50.50;42.20;;;;;;;15.46;90.45;98533.08;225994;1280;22577;-80
2023/06/09 22:04:49;;;;;;;48.40;40.90;;;;;;;15.47;90.43;98529.95;226013;1280;22524;-79
2023/06/09 22:10:14;;;;;;;54.10;44.10;;;;;;;15.48;90.65;98527.44;226216;1277;22568;-81
2023/06/09 22:16:05;;;;;;;55.30;43.50;;;;;;;15.49;90.74;98522.15;226000;1261;24256;-80
2023/06/09 22:21:42;;;;;;;;;;;;;;;;;;;;;
2023/06/09 22:26:53;;;;;;;47.20;41.00;;;;;;;15.50;90.35;98525.14;226039;1256;22545;-80
2023/06/09 22:32:30;;;;;;;51.40;42.70;;;;;;;15.49;90.38;98525.59;225951;1279;22970;-80
2023/06/09 22:37:55;;;;;;;53.00;44.60;;;;;;;15.49;90.49;98522.08;225906;1280;22555;-79
2023/06/09 22:43:22;;;;;;;48.20;41.40;;;;;;;15.49;90.55;98525.23;226232;1276;22842;-80
2023/06/09 22:48:45;;;;;;;44.80;38.20;;;;;;;15.48;90.32;98525.98;226044;1280;22566;-80
2023/06/09 22:53:53;;;;;;;45.80;37.90;;;;;;;15.45;90.49;98532.15;226224;1277;22550;-80
2023/06/09 22:59:21;;;;;;;45.10;37.10;;;;;;;15.42;90.26;98527.83;226045;1280;22557;-80
2023/06/09 23:05:13;;;;;;;40.10;35.80;;;;;;;15.42;90.37;98529.15;225858;1280;22549;-81
2023/06/09 23:10:51;;;;;;;39.80;34.30;;;;;;;15.43;90.36;98520.65;225753;1281;24374;-80
2023/06/09 23:16:11;;;;;;;40.30;35.30;;;;;;;15.45;90.45;98520.42;225632;1282;22545;-80
2023/06/09 23:21:50;;;;;;;38.60;34.40;;;;;;;15.47;90.74;98518.78;225633;1282;22541;-80
2023/06/09 23:27:13;;;;;;;40.60;36.20;;;;;;;15.48;90.38;98519.61;225644;1282;22536;-80
2023/06/09 23:32:47;;;;;;;38.80;34.00;;;;;;;15.48;90.51;98519.98;225587;1282;22555;-80
2023/06/09 23:38:12;;;;;;;39.70;35.00;;;;;;;15.48;90.69;98521.95;225475;1282;22540;-80
2023/06/09 23:43:46;;;;;;;;;;;;;;;;;;;;;
2023/06/09 23:49:36;;;;;;;40.40;36.20;;;;;;;15.46;90.81;98517.42;225682;1281;22509;-81
2023/06/09 23:55:23;;;;;;;39.50;35.30;;;;;;;15.47;90.61;98514.89;226221;1278;22536;-81
